createdAt,value
2022-11-13T00:00:35.433Z,3.40
2022-11-13T00:03:03.769Z,3.70
2022-11-13T00:05:31.993Z,3.33
2022-11-13T00:08:00.283Z,2.73
2022-11-13T00:10:29.970Z,3.93
2022-11-13T00:12:58.214Z,3.70
2022-11-13T00:15:26.526Z,3.87
2022-11-13T00:17:54.921Z,3.53
2022-11-13T00:20:23.233Z,3.33
2022-11-13T00:22:51.552Z,3.97
2022-11-13T00:25:19.798Z,3.80
2022-11-13T00:27:49.399Z,3.00
2022-11-13T00:30:19.528Z,4.10
2022-11-13T00:32:48.043Z,2.60
2022-11-13T00:35:16.373Z,3.30
2022-11-13T00:37:44.640Z,3.03
2022-11-13T00:40:13.141Z,4.10
2022-11-13T00:42:41.400Z,3.80
2022-11-13T00:45:11.510Z,3.20
2022-11-13T00:47:39.802Z,2.93
2022-11-13T00:50:08.322Z,3.43
2022-11-13T00:52:36.591Z,3.77
2022-11-13T00:55:04.918Z,3.03
2022-11-13T00:57:33.305Z,2.93
2022-11-13T01:00:01.631Z,3.50
2022-11-13T01:02:31.300Z,3.40
2022-11-13T01:04:59.542Z,2.47
2022-11-13T01:07:27.849Z,3.00
2022-11-13T01:09:56.215Z,3.03
2022-11-13T01:12:24.506Z,2.70
2022-11-13T01:14:52.785Z,2.70
2022-11-13T01:17:21.041Z,2.80
2022-11-13T01:19:50.671Z,2.63
2022-11-13T01:22:18.939Z,3.10
2022-11-13T01:24:47.201Z,2.77
2022-11-13T01:27:16.024Z,2.33
2022-11-13T01:29:44.250Z,2.77
2022-11-13T01:32:12.498Z,2.77
2022-11-13T01:34:40.777Z,2.50
2022-11-13T01:37:10.394Z,3.13
2022-11-13T01:39:38.716Z,2.40
2022-11-13T01:42:07.164Z,3.20
2022-11-13T01:44:48.754Z,2.20
2022-11-13T01:47:17.023Z,2.17
2022-11-13T01:49:45.303Z,2.40
2022-11-13T01:52:15.267Z,2.53
2022-11-13T01:54:44.567Z,2.40
2022-11-13T01:57:12.892Z,2.73
2022-11-13T01:59:41.722Z,2.47
2022-11-13T02:02:10.054Z,2.60
2022-11-13T02:04:38.384Z,2.53
2022-11-13T02:07:07.688Z,2.20
2022-11-13T02:09:37.750Z,3.03
2022-11-13T02:12:06.307Z,2.60
2022-11-13T02:14:34.582Z,2.80
2022-11-13T02:17:03.615Z,3.00
2022-11-13T02:19:32.582Z,2.87
2022-11-13T02:22:01.500Z,2.67
2022-11-13T02:24:32.746Z,2.70
2022-11-13T02:27:02.534Z,2.80
2022-11-13T02:29:30.757Z,2.30
2022-11-13T02:31:59.055Z,2.33
2022-11-13T02:34:27.347Z,2.33
2022-11-13T02:36:55.599Z,2.50
2022-11-13T02:39:23.845Z,2.23
2022-11-13T02:41:53.517Z,2.43
2022-11-13T02:44:21.801Z,2.50
2022-11-13T02:46:50.093Z,2.60
2022-11-13T02:49:18.393Z,2.40
2022-11-13T02:51:46.685Z,2.63
2022-11-13T02:54:17.065Z,2.90
2022-11-13T02:56:45.697Z,2.60
2022-11-13T02:59:15.335Z,2.40
2022-11-13T03:01:43.890Z,2.40
2022-11-13T03:04:12.246Z,3.07
2022-11-13T03:06:40.567Z,2.10
2022-11-13T03:09:08.906Z,2.20
2022-11-13T03:11:37.165Z,2.83
2022-11-13T03:14:05.423Z,2.33
2022-11-13T03:16:35.125Z,2.70
2022-11-13T03:19:03.395Z,2.60
2022-11-13T03:21:32.302Z,2.20
2022-11-13T03:24:00.797Z,2.33
2022-11-13T03:26:29.267Z,2.23
2022-11-13T03:28:57.613Z,2.50
2022-11-13T03:31:25.859Z,2.03
2022-11-13T03:33:55.736Z,2.70
2022-11-13T03:36:24.013Z,2.20
2022-11-13T03:38:52.289Z,2.50
2022-11-13T03:41:20.645Z,2.20
2022-11-13T03:43:48.937Z,1.80
2022-11-13T03:46:17.245Z,2.00
2022-11-13T03:48:45.503Z,2.70
2022-11-13T03:51:15.104Z,2.17
2022-11-13T03:53:43.349Z,2.30
2022-11-13T03:56:11.681Z,2.10
2022-11-13T03:58:40.315Z,2.17
2022-11-13T04:01:08.907Z,2.03
2022-11-13T04:03:37.208Z,2.00
2022-11-13T04:06:05.612Z,2.60
2022-11-13T04:08:35.766Z,2.00
2022-11-13T04:11:07.557Z,2.20
2022-11-13T04:13:35.852Z,2.03
2022-11-13T04:16:04.095Z,1.57
2022-11-13T04:18:32.365Z,1.90
2022-11-13T04:21:01.130Z,1.77
2022-11-13T04:23:29.407Z,2.03
2022-11-13T04:25:59.049Z,1.90
2022-11-13T04:28:27.737Z,1.73
2022-11-13T04:30:56.368Z,2.00
2022-11-13T04:33:24.615Z,1.60
2022-11-13T04:35:52.862Z,1.97
2022-11-13T04:38:21.149Z,2.00
2022-11-13T04:40:51.010Z,1.77
2022-11-13T04:43:19.833Z,1.77
2022-11-13T04:45:48.142Z,2.40
2022-11-13T04:48:16.375Z,1.70
2022-11-13T04:50:44.660Z,2.23
2022-11-13T04:53:13.086Z,2.10
2022-11-13T04:55:41.366Z,1.63
2022-11-13T04:58:09.618Z,2.20
2022-11-13T05:00:39.479Z,1.90
2022-11-13T05:03:07.752Z,1.63
2022-11-13T05:05:35.971Z,1.63
2022-11-13T05:08:04.238Z,1.50
2022-11-13T05:10:32.503Z,1.80
2022-11-13T05:13:00.796Z,2.50
2022-11-13T05:15:29.051Z,2.07
2022-11-13T05:17:58.679Z,2.10
2022-11-13T05:20:26.945Z,1.50
2022-11-13T05:22:55.231Z,2.00
2022-11-13T05:25:23.485Z,2.20
2022-11-13T05:27:51.806Z,1.30
2022-11-13T05:30:20.094Z,1.37
2022-11-13T05:32:48.356Z,1.87
2022-11-13T05:35:18.342Z,1.60
2022-11-13T05:37:46.567Z,1.67
2022-11-13T05:40:14.804Z,1.50
2022-11-13T05:42:43.112Z,1.57
2022-11-13T05:45:12.013Z,1.70
2022-11-13T05:47:40.287Z,1.63
2022-11-13T05:50:08.980Z,1.30
2022-11-13T05:52:38.587Z,1.30
2022-11-13T05:55:07.476Z,1.83
2022-11-13T05:57:35.788Z,2.10
2022-11-13T06:00:04.103Z,1.70
2022-11-13T06:02:32.402Z,1.50
2022-11-13T06:05:00.717Z,1.63
2022-11-13T06:07:28.975Z,1.60
2022-11-13T06:09:58.572Z,1.57
2022-11-13T06:12:26.877Z,1.90
2022-11-13T06:14:55.112Z,1.60
2022-11-13T06:17:23.362Z,1.80
2022-11-13T06:19:51.649Z,1.10
2022-11-13T06:22:19.955Z,1.53
2022-11-13T06:24:48.236Z,1.23
2022-11-13T06:27:17.868Z,1.60
2022-11-13T06:29:47.001Z,1.07
2022-11-13T06:32:15.249Z,1.33
2022-11-13T06:34:44.749Z,1.10
2022-11-13T06:37:13.109Z,1.23
2022-11-13T06:39:41.430Z,2.07
2022-11-13T06:42:09.669Z,1.10
2022-11-13T06:44:39.339Z,1.20
2022-11-13T06:47:07.610Z,1.30
2022-11-13T06:49:35.888Z,1.73
2022-11-13T06:52:04.338Z,1.50
2022-11-13T06:54:32.696Z,1.40
2022-11-13T06:57:00.961Z,1.60
2022-11-13T06:59:29.201Z,1.33
2022-11-13T07:01:58.940Z,1.17
2022-11-13T07:04:27.278Z,1.00
2022-11-13T07:06:55.588Z,1.53
2022-11-13T07:09:23.982Z,1.67
2022-11-13T07:11:52.354Z,1.60
2022-11-13T07:14:20.651Z,1.57
2022-11-13T07:17:08.544Z,1.00
2022-11-13T07:19:38.690Z,1.63
2022-11-13T07:22:07.067Z,1.10
2022-11-13T07:24:35.325Z,1.10
2022-11-13T07:27:03.589Z,1.07
2022-11-13T07:29:32.008Z,1.20
2022-11-13T07:32:00.278Z,1.07
2022-11-13T07:34:28.597Z,1.17
2022-11-13T07:36:58.277Z,0.90
2022-11-13T07:39:26.722Z,0.63
2022-11-13T07:41:55.076Z,1.00
2022-11-13T07:44:48.078Z,1.10
2022-11-13T07:47:11.721Z,1.00
2022-11-13T07:49:40.029Z,1.00
2022-11-13T07:52:09.787Z,1.20
2022-11-13T07:54:38.138Z,1.27
2022-11-13T07:57:06.431Z,1.33
2022-11-13T07:59:34.730Z,1.53
2022-11-13T08:02:03.160Z,1.67
2022-11-13T08:04:31.793Z,2.00
2022-11-13T08:07:00.175Z,1.43
2022-11-13T08:09:30.166Z,2.33
2022-11-13T08:11:58.455Z,2.43
2022-11-13T08:14:26.765Z,1.70
2022-11-13T08:16:55.218Z,1.53
2022-11-13T08:19:23.536Z,1.83
2022-11-13T08:21:51.844Z,2.00
2022-11-13T08:24:20.329Z,1.60
2022-11-13T08:26:50.006Z,2.00
2022-11-13T08:29:18.435Z,2.53
2022-11-13T08:31:46.835Z,2.47
2022-11-13T08:34:17.492Z,1.40
2022-11-13T08:36:45.851Z,1.63
2022-11-13T08:39:14.449Z,1.70
2022-11-13T08:41:42.772Z,1.83
2022-11-13T08:44:14.339Z,1.60
2022-11-13T08:46:42.649Z,1.93
2022-11-13T08:49:12.095Z,2.67
2022-11-13T08:51:40.431Z,2.20
2022-11-13T08:54:08.719Z,2.17
2022-11-13T08:56:37.071Z,1.90
2022-11-13T08:59:05.425Z,2.23
2022-11-13T09:01:35.129Z,2.07
2022-11-13T09:04:03.889Z,2.23
2022-11-13T09:06:32.198Z,2.13
2022-11-13T09:09:00.496Z,1.80
2022-11-13T09:11:29.199Z,2.17
2022-11-13T09:13:57.558Z,2.07
2022-11-13T09:16:25.896Z,2.10
2022-11-13T09:18:55.729Z,1.90
2022-11-13T09:21:24.188Z,1.67
2022-11-13T09:23:52.551Z,2.20
2022-11-13T09:26:21.055Z,2.43
2022-11-13T09:28:49.505Z,1.77
2022-11-13T09:31:17.815Z,2.00
2022-11-13T09:33:46.268Z,1.50
2022-11-13T09:36:16.509Z,1.20
2022-11-13T09:38:44.795Z,1.53
2022-11-13T09:41:14.086Z,2.00
2022-11-13T09:43:43.019Z,2.00
2022-11-13T09:46:13.127Z,1.60
2022-11-13T09:48:42.502Z,1.73
2022-11-13T09:51:13.454Z,1.73
2022-11-13T09:53:43.513Z,1.53
2022-11-13T09:56:18.175Z,1.90
2022-11-13T09:58:47.734Z,2.10
2022-11-13T10:01:17.487Z,1.97
2022-11-13T10:04:01.474Z,2.20
2022-11-13T10:06:34.216Z,2.37
2022-11-13T10:09:05.632Z,2.20
2022-11-13T10:11:36.119Z,1.60
2022-11-13T10:14:05.268Z,2.00
2022-11-13T10:16:34.125Z,1.63
2022-11-13T10:19:03.032Z,1.60
2022-11-13T10:21:33.045Z,1.97
2022-11-13T10:24:01.341Z,2.33
2022-11-13T10:26:31.173Z,1.90
2022-11-13T10:29:01.472Z,2.33
2022-11-13T10:31:29.874Z,1.57
2022-11-13T10:33:58.406Z,1.57
2022-11-13T10:36:29.378Z,1.70
2022-11-13T10:39:03.578Z,2.47
2022-11-13T10:41:33.306Z,2.33
2022-11-13T10:44:07.145Z,2.33
2022-11-13T10:46:35.426Z,2.50
2022-11-13T10:49:12.717Z,1.90
2022-11-13T10:51:41.063Z,1.70
2022-11-13T10:54:22.630Z,2.07
2022-11-13T10:56:59.305Z,2.67
2022-11-13T10:59:27.812Z,2.30
2022-11-13T11:01:56.143Z,2.23
2022-11-13T11:04:27.398Z,2.10
2022-11-13T11:07:19.132Z,2.17
2022-11-13T11:09:44.490Z,2.20
2022-11-13T11:12:16.996Z,2.50
2022-11-13T11:14:47.486Z,2.50
2022-11-13T11:17:16.179Z,2.00
2022-11-13T11:19:54.256Z,2.07
2022-11-13T11:22:24.101Z,2.37
2022-11-13T11:24:53.392Z,1.60
2022-11-13T11:27:24.015Z,1.70
2022-11-13T11:29:53.138Z,2.10
2022-11-13T11:32:22.881Z,2.00
2022-11-13T11:34:57.833Z,1.87
2022-11-13T11:37:28.348Z,2.03
2022-11-13T11:39:59.767Z,2.10
2022-11-13T11:42:30.295Z,2.80
2022-11-13T11:45:02.468Z,2.87
2022-11-13T11:47:30.789Z,3.03
2022-11-13T11:49:59.092Z,3.63
2022-11-13T11:52:31.768Z,3.33
2022-11-13T11:55:02.988Z,3.30
2022-11-13T11:57:39.068Z,3.60
2022-11-13T12:00:07.860Z,4.17
2022-11-13T12:02:49.241Z,3.73
2022-11-13T12:05:23.992Z,4.30
2022-11-13T12:07:56.100Z,4.43
2022-11-13T12:10:26.412Z,4.30
2022-11-13T12:13:05.423Z,3.57
2022-11-13T12:15:37.155Z,4.50
2022-11-13T12:18:07.158Z,5.03
2022-11-13T12:20:37.728Z,7.77
2022-11-13T12:23:08.949Z,7.20
2022-11-13T12:25:37.830Z,8.57
2022-11-13T12:28:11.465Z,10.07
2022-11-13T12:30:41.413Z,10.57
2022-11-13T12:33:19.407Z,9.60
2022-11-13T12:35:47.797Z,12.77
2022-11-13T12:38:19.765Z,12.23
2022-11-13T12:40:49.959Z,12.57
2022-11-13T12:43:29.290Z,12.07
2022-11-13T12:45:58.595Z,18.00
2022-11-13T12:48:34.095Z,15.10
2022-11-13T12:51:02.950Z,13.73
2022-11-13T12:53:31.738Z,15.07
2022-11-13T12:56:01.023Z,10.23
2022-11-13T12:58:31.332Z,10.40
2022-11-13T13:01:01.088Z,10.43
2022-11-13T13:03:48.165Z,10.10
2022-11-13T13:06:22.809Z,9.30
2022-11-13T13:08:55.389Z,10.97
2022-11-13T13:11:25.441Z,11.10
2022-11-13T13:13:57.107Z,11.33
2022-11-13T13:16:25.975Z,11.33
2022-11-13T13:18:54.348Z,8.30
2022-11-13T13:21:22.750Z,7.93
2022-11-13T13:23:51.901Z,6.30
2022-11-13T13:26:21.857Z,7.03
2022-11-13T13:28:51.932Z,6.20
2022-11-13T13:31:24.602Z,6.40
2022-11-13T13:33:55.232Z,6.10
2022-11-13T13:36:26.151Z,6.03
2022-11-13T13:38:56.200Z,4.60
2022-11-13T13:41:28.002Z,4.17
2022-11-13T13:43:58.730Z,3.83
2022-11-13T13:46:28.678Z,4.37
2022-11-13T13:48:57.925Z,2.93
2022-11-13T13:51:28.497Z,3.00
2022-11-13T13:53:57.091Z,3.77
2022-11-13T13:56:25.520Z,3.53
2022-11-13T13:58:53.997Z,3.50
2022-11-13T14:01:30.993Z,2.80
2022-11-13T14:04:06.178Z,2.40
2022-11-13T14:06:34.742Z,2.20
2022-11-13T14:09:09.537Z,1.80
2022-11-13T14:11:37.832Z,1.80
2022-11-13T14:14:09.713Z,1.97
2022-11-13T14:16:49.470Z,2.20
2022-11-13T14:19:17.798Z,2.57
2022-11-13T14:21:46.516Z,2.20
2022-11-13T14:24:18.219Z,1.97
2022-11-13T14:26:46.526Z,2.17
2022-11-13T14:29:21.820Z,1.80
2022-11-13T14:31:51.528Z,2.57
2022-11-13T14:34:20.236Z,1.90
2022-11-13T14:36:49.277Z,2.00
2022-11-13T14:39:21.341Z,2.20
2022-11-13T14:41:50.992Z,2.00
2022-11-13T14:44:30.788Z,1.63
2022-11-13T14:47:02.496Z,2.23
2022-11-13T14:49:31.151Z,1.80
2022-11-13T14:52:00.246Z,1.77
2022-11-13T14:54:53.048Z,1.30
2022-11-13T14:57:21.065Z,1.70
2022-11-13T14:59:49.473Z,1.80
2022-11-13T15:02:20.306Z,1.43
2022-11-13T15:04:48.628Z,1.80
2022-11-13T15:07:21.779Z,1.80
2022-11-13T15:09:50.586Z,2.07
2022-11-13T15:12:18.890Z,1.70
2022-11-13T15:14:47.239Z,2.07
2022-11-13T15:17:16.746Z,1.90
2022-11-13T15:19:46.425Z,1.83
2022-11-13T15:22:30.275Z,3.17
2022-11-13T15:24:58.761Z,2.20
2022-11-13T15:27:27.298Z,1.67
2022-11-13T15:29:55.610Z,1.90
2022-11-13T15:32:23.936Z,1.87
2022-11-13T15:34:53.667Z,2.57
2022-11-13T15:37:21.929Z,2.40
2022-11-13T15:39:50.209Z,2.37
2022-11-13T15:42:19.403Z,2.13
2022-11-13T15:44:48.516Z,1.90
2022-11-13T15:47:23.264Z,2.23
2022-11-13T15:50:12.351Z,2.07
2022-11-13T15:52:42.096Z,2.80
2022-11-13T15:55:17.824Z,2.23
2022-11-13T15:57:46.351Z,2.63
2022-11-13T16:00:15.872Z,2.40
2022-11-13T16:02:44.177Z,2.33
2022-11-13T16:05:12.594Z,2.60
2022-11-13T16:07:42.573Z,2.67
2022-11-13T16:10:11.184Z,2.67
2022-11-13T16:12:39.851Z,2.20
2022-11-13T16:15:08.551Z,2.90
2022-11-13T16:17:39.973Z,2.87
2022-11-13T16:20:08.824Z,3.67
2022-11-13T16:22:37.102Z,2.73
2022-11-13T16:25:07.463Z,2.87
2022-11-13T16:27:35.763Z,3.07
2022-11-13T16:30:07.178Z,3.20
2022-11-13T16:32:35.667Z,3.17
2022-11-13T16:35:03.978Z,3.10
2022-11-13T16:37:32.407Z,3.73
2022-11-13T16:40:00.937Z,4.30
2022-11-13T16:42:31.133Z,3.23
2022-11-13T16:44:59.437Z,3.10
2022-11-13T16:47:27.999Z,4.47
2022-11-13T16:49:56.412Z,3.73
2022-11-13T16:52:26.808Z,3.37
2022-11-13T16:54:55.305Z,4.50
2022-11-13T16:57:23.677Z,3.60
2022-11-13T16:59:53.339Z,3.63
2022-11-13T17:02:21.761Z,4.63
2022-11-13T17:04:50.112Z,4.57
2022-11-13T17:07:18.733Z,4.70
2022-11-13T17:09:55.206Z,4.70
2022-11-13T17:12:32.514Z,5.07
2022-11-13T17:15:02.317Z,4.73
2022-11-13T17:17:30.786Z,5.17
2022-11-13T17:19:59.162Z,4.30
2022-11-13T17:22:27.755Z,4.07
2022-11-13T17:24:56.056Z,4.27
2022-11-13T17:27:24.478Z,3.90
2022-11-13T17:29:52.937Z,5.43
2022-11-13T17:32:22.622Z,5.13
2022-11-13T17:34:51.038Z,4.60
2022-11-13T17:37:24.041Z,5.00
2022-11-13T17:39:53.483Z,5.03
2022-11-13T17:42:21.882Z,5.43
2022-11-13T17:44:50.201Z,4.80
2022-11-13T17:47:18.638Z,4.87
2022-11-13T17:49:48.478Z,4.10
2022-11-13T17:52:16.807Z,5.10
2022-11-13T17:54:45.093Z,4.30
2022-11-13T17:57:13.483Z,5.37
2022-11-13T17:59:42.349Z,4.00
2022-11-13T18:02:11.213Z,4.57
2022-11-13T18:04:39.595Z,5.10
2022-11-13T18:07:09.300Z,5.40
2022-11-13T18:09:37.680Z,4.23
2022-11-13T18:12:06.514Z,3.80
2022-11-13T18:14:34.980Z,4.67
2022-11-13T18:17:03.441Z,4.73
2022-11-13T18:19:31.786Z,5.20
2022-11-13T18:22:00.146Z,5.33
2022-11-13T18:24:30.061Z,5.20
2022-11-13T18:26:58.513Z,4.53
2022-11-13T18:29:26.908Z,5.60
2022-11-13T18:31:55.764Z,4.07
2022-11-13T18:34:24.078Z,4.93
2022-11-13T18:36:52.395Z,5.43
2022-11-13T18:39:20.842Z,4.40
2022-11-13T18:41:50.591Z,3.63
2022-11-13T18:44:19.073Z,4.87
2022-11-13T18:46:47.426Z,4.23
2022-11-13T18:49:16.315Z,4.60
2022-11-13T18:51:44.689Z,4.47
2022-11-13T18:54:13.266Z,6.07
2022-11-13T18:56:41.781Z,4.27
2022-11-13T18:59:11.426Z,4.40
2022-11-13T19:01:40.190Z,4.17
2022-11-13T19:04:22.858Z,5.00
2022-11-13T19:06:51.520Z,4.20
2022-11-13T19:09:19.986Z,4.37
2022-11-13T19:11:48.633Z,3.70
2022-11-13T19:14:18.903Z,4.67
2022-11-13T19:16:47.195Z,4.73
2022-11-13T19:19:16.435Z,4.73
2022-11-13T19:21:44.755Z,4.57
2022-11-13T19:24:14.582Z,3.87
2022-11-13T19:26:43.027Z,5.27
2022-11-13T19:29:11.553Z,3.93
2022-11-13T19:31:41.262Z,4.17
2022-11-13T19:34:09.611Z,4.10
2022-11-13T19:36:38.288Z,3.97
2022-11-13T19:39:06.551Z,4.63
2022-11-13T19:41:34.856Z,4.40
2022-11-13T19:44:03.295Z,5.03
2022-11-13T19:46:34.017Z,4.60
2022-11-13T19:49:03.917Z,4.87
2022-11-13T19:51:32.217Z,4.10
2022-11-13T19:54:00.966Z,4.70
2022-11-13T19:56:29.565Z,4.00
2022-11-13T19:58:57.894Z,4.63
2022-11-13T20:01:26.727Z,4.53
2022-11-13T20:03:56.011Z,5.27
2022-11-13T20:06:25.882Z,4.37
2022-11-13T20:08:54.179Z,4.63
2022-11-13T20:11:22.573Z,5.20
2022-11-13T20:13:50.966Z,4.23
2022-11-13T20:16:21.029Z,4.50
2022-11-13T20:18:49.621Z,4.90
2022-11-13T20:21:17.935Z,5.13
2022-11-13T20:23:47.579Z,4.47
2022-11-13T20:26:16.769Z,6.60
2022-11-13T20:28:45.087Z,8.00
2022-11-13T20:31:16.432Z,13.33
2022-11-13T20:33:44.916Z,17.70
2022-11-13T20:36:13.304Z,22.60
2022-11-13T20:38:41.788Z,19.73
2022-11-13T20:41:12.007Z,24.33
2022-11-13T20:43:40.402Z,25.13
2022-11-13T20:46:09.028Z,25.93
2022-11-13T20:48:37.405Z,23.60
2022-11-13T20:51:09.083Z,22.00
2022-11-13T20:53:37.441Z,20.30
2022-11-13T20:56:05.974Z,20.20
2022-11-13T20:58:35.929Z,19.27
2022-11-13T21:01:04.788Z,16.90
2022-11-13T21:03:35.986Z,16.07
2022-11-13T21:06:08.646Z,14.77
2022-11-13T21:08:37.059Z,16.30
2022-11-13T21:11:06.354Z,15.30
2022-11-13T21:13:36.105Z,13.13
2022-11-13T21:16:06.171Z,13.80
2022-11-13T21:18:34.481Z,14.53
2022-11-13T21:21:06.240Z,12.17
2022-11-13T21:23:34.518Z,15.37
2022-11-13T21:26:02.799Z,13.90
2022-11-13T21:28:33.721Z,11.20
2022-11-13T21:31:03.991Z,12.10
2022-11-13T21:33:32.450Z,9.73
2022-11-13T21:36:05.227Z,12.23
2022-11-13T21:38:33.608Z,12.93
2022-11-13T21:41:19.486Z,12.10
2022-11-13T21:43:47.855Z,9.87
2022-11-13T21:46:17.539Z,10.00
2022-11-13T21:48:45.818Z,10.93
2022-11-13T21:51:14.262Z,9.80
2022-11-13T21:53:43.474Z,8.17
2022-11-13T21:56:15.665Z,8.20
2022-11-13T21:58:44.559Z,8.37
2022-11-13T22:01:12.841Z,9.47
2022-11-13T22:03:42.522Z,8.67
2022-11-13T22:06:14.631Z,8.97
2022-11-13T22:08:43.194Z,8.03
2022-11-13T22:11:11.504Z,8.40
2022-11-13T22:13:39.838Z,8.57
2022-11-13T22:16:08.508Z,8.43
2022-11-13T22:18:36.878Z,7.57
2022-11-13T22:21:07.180Z,7.23
2022-11-13T22:23:35.491Z,7.27
2022-11-13T22:26:04.223Z,7.20
2022-11-13T22:28:33.445Z,6.07
2022-11-13T22:31:01.736Z,7.13
2022-11-13T22:33:30.496Z,6.57
2022-11-13T22:36:02.044Z,6.13
2022-11-13T22:38:32.199Z,7.10
2022-11-13T22:41:04.319Z,6.73
2022-11-13T22:43:35.881Z,6.20
2022-11-13T22:46:04.927Z,5.43
2022-11-13T22:48:33.309Z,6.77
2022-11-13T22:51:04.905Z,6.23
2022-11-13T22:53:34.506Z,4.77
2022-11-13T22:56:03.487Z,5.80
2022-11-13T22:58:32.060Z,4.40
2022-11-13T23:01:05.255Z,5.87
2022-11-13T23:03:33.638Z,6.90
2022-11-13T23:06:03.652Z,6.00
2022-11-13T23:08:32.243Z,5.30
2022-11-13T23:11:02.023Z,4.87
2022-11-13T23:13:30.274Z,5.20
2022-11-13T23:15:58.550Z,5.20
2022-11-13T23:18:27.318Z,5.47
2022-11-13T23:20:55.782Z,4.00
2022-11-13T23:23:24.226Z,5.63
2022-11-13T23:25:52.702Z,5.47
2022-11-13T23:28:22.457Z,5.20
2022-11-13T23:30:50.786Z,5.90
2022-11-13T23:33:19.313Z,4.47
2022-11-13T23:35:47.592Z,4.83
2022-11-13T23:38:15.968Z,4.43
2022-11-13T23:40:44.289Z,3.67
2022-11-13T23:43:12.593Z,4.17
2022-11-13T23:45:42.242Z,4.70
2022-11-13T23:48:10.502Z,4.03
2022-11-13T23:50:38.797Z,4.77
2022-11-13T23:53:07.086Z,3.33
2022-11-13T23:55:35.371Z,4.23
2022-11-13T23:58:04.225Z,3.60
